createdAt,value
2019-05-03T00:01:14.324Z,65.58
2019-05-03T00:03:43.827Z,66.16
2019-05-03T00:06:13.749Z,66.73
2019-05-03T00:08:43.224Z,68.38
2019-05-03T00:11:12.777Z,67.48
2019-05-03T00:13:42.267Z,67.14
2019-05-03T00:16:18.027Z,67.39
2019-05-03T00:18:47.509Z,67.67
2019-05-03T00:21:17.013Z,67.86
2019-05-03T00:23:46.465Z,68.02
2019-05-03T00:26:15.928Z,68.15
2019-05-03T00:28:45.403Z,68.51
2019-05-03T00:31:14.883Z,68.64
2019-05-03T00:33:46.019Z,68.63
2019-05-03T00:36:41.931Z,68.82
2019-05-03T00:39:25.864Z,68.95
2019-05-03T00:42:06.329Z,69.21
2019-05-03T00:44:35.807Z,69.30
2019-05-03T00:47:05.384Z,68.54
2019-05-03T00:49:34.886Z,68.73
2019-05-03T00:52:04.380Z,68.98
2019-05-03T00:54:33.867Z,69.23
2019-05-03T00:57:03.377Z,69.47
2019-05-03T00:59:32.849Z,68.57
2019-05-03T01:02:02.830Z,68.56
2019-05-03T01:04:32.343Z,67.94
2019-05-03T01:07:02.332Z,66.68
2019-05-03T01:09:31.911Z,65.78
2019-05-03T01:12:01.956Z,65.63
2019-05-03T01:14:32.044Z,66.00
2019-05-03T01:17:02.634Z,66.87
2019-05-03T01:19:33.887Z,67.85
2019-05-03T01:22:03.386Z,68.17
2019-05-03T01:24:32.873Z,68.05
2019-05-03T01:27:02.345Z,67.38
2019-05-03T01:29:32.346Z,67.42
2019-05-03T01:32:02.431Z,67.07
2019-05-03T01:34:32.593Z,67.73
2019-05-03T01:37:02.729Z,68.51
2019-05-03T01:39:32.337Z,68.72
2019-05-03T01:42:02.664Z,68.24
2019-05-03T01:44:32.750Z,68.62
2019-05-03T01:47:04.843Z,68.82
2019-05-03T01:49:52.032Z,68.34
2019-05-03T01:52:28.387Z,68.21
2019-05-03T01:54:57.889Z,67.68
2019-05-03T01:57:27.375Z,67.41
2019-05-03T01:59:56.874Z,67.53
2019-05-03T02:02:39.276Z,67.73
2019-05-03T02:05:31.905Z,67.87
2019-05-03T02:08:02.120Z,68.21
2019-05-03T02:10:32.182Z,69.94
2019-05-03T02:13:01.846Z,70.37
2019-05-03T02:15:32.696Z,71.07
2019-05-03T02:18:02.647Z,71.46
2019-05-03T02:20:32.500Z,71.69
2019-05-03T02:23:02.739Z,71.76
2019-05-03T02:25:32.506Z,71.95
2019-05-03T02:28:02.119Z,72.15
2019-05-03T02:30:33.227Z,72.31
2019-05-03T02:33:04.189Z,72.43
2019-05-03T02:35:33.899Z,72.49
2019-05-03T02:38:03.882Z,72.61
2019-05-03T02:40:34.003Z,72.74
2019-05-03T02:43:11.638Z,72.31
2019-05-03T02:46:16.830Z,72.63
2019-05-03T02:48:55.973Z,72.76
2019-05-03T02:51:26.175Z,72.74
2019-05-03T02:53:57.123Z,73.06
2019-05-03T02:56:26.939Z,73.04
2019-05-03T02:58:56.423Z,73.00
2019-05-03T03:01:26.558Z,72.78
2019-05-03T03:03:57.289Z,72.90
2019-05-03T03:06:28.252Z,73.05
2019-05-03T03:08:59.662Z,72.69
2019-05-03T03:11:30.377Z,72.58
2019-05-03T03:14:01.248Z,72.68
2019-05-03T03:16:35.934Z,72.78
2019-05-03T03:19:06.568Z,72.82
2019-05-03T03:21:41.877Z,72.95
2019-05-03T03:24:17.128Z,72.85
2019-05-03T03:26:49.799Z,72.80
2019-05-03T03:29:24.985Z,73.12
2019-05-03T03:32:18.405Z,73.27
2019-05-03T03:34:56.888Z,73.28
2019-05-03T03:37:21.897Z,73.26
2019-05-03T03:39:51.996Z,73.21
2019-05-03T03:42:25.011Z,73.23
2019-05-03T03:44:56.323Z,73.08
2019-05-03T03:47:27.873Z,73.08
2019-05-03T03:49:58.570Z,73.04
2019-05-03T03:52:30.412Z,72.94
2019-05-03T03:55:02.730Z,72.61
2019-05-03T03:57:35.747Z,73.06
2019-05-03T04:00:07.267Z,72.78
2019-05-03T04:02:38.482Z,72.81
2019-05-03T04:05:08.599Z,72.41
2019-05-03T04:07:38.844Z,72.19
2019-05-03T04:10:09.626Z,72.01
2019-05-03T04:12:40.973Z,71.90
2019-05-03T04:15:37.139Z,71.80
2019-05-03T04:18:29.948Z,71.28
2019-05-03T04:20:59.591Z,71.15
2019-05-03T04:23:31.983Z,71.48
2019-05-03T04:26:02.304Z,71.56
2019-05-03T04:28:32.973Z,71.26
2019-05-03T04:31:02.443Z,71.22
2019-05-03T04:33:31.993Z,70.98
2019-05-03T04:36:01.477Z,70.35
2019-05-03T04:38:31.015Z,67.52
2019-05-03T04:41:00.512Z,63.90
2019-05-03T04:43:30.014Z,60.70
2019-05-03T04:46:06.776Z,58.29
2019-05-03T04:48:36.440Z,55.76
2019-05-03T04:51:06.294Z,53.32
2019-05-03T04:53:37.430Z,51.98
2019-05-03T04:56:06.954Z,51.13
2019-05-03T04:58:36.706Z,49.26
2019-05-03T05:01:06.681Z,47.65
2019-05-03T05:03:36.515Z,46.35
2019-05-03T05:06:06.589Z,45.55
2019-05-03T05:08:36.251Z,44.57
2019-05-03T05:11:09.778Z,44.36
2019-05-03T05:13:37.056Z,44.63
2019-05-03T05:16:06.598Z,44.22
2019-05-03T05:18:45.697Z,43.67
2019-05-03T05:21:18.736Z,44.41
2019-05-03T05:24:01.678Z,44.96
2019-05-03T05:26:38.678Z,46.25
2019-05-03T05:29:10.976Z,47.95
2019-05-03T05:31:40.439Z,49.87
2019-05-03T05:34:09.951Z,52.21
2019-05-03T05:36:39.431Z,51.75
2019-05-03T05:39:09.477Z,52.05
2019-05-03T05:41:38.980Z,52.52
2019-05-03T05:44:08.463Z,52.55
2019-05-03T05:46:48.429Z,52.93
2019-05-03T05:49:36.883Z,52.89
2019-05-03T05:52:06.404Z,52.44
2019-05-03T05:54:36.291Z,52.26
2019-05-03T05:57:25.629Z,51.98
2019-05-03T06:00:01.433Z,51.65
2019-05-03T06:02:30.951Z,51.64
2019-05-03T06:05:00.447Z,51.91
2019-05-03T06:08:04.838Z,51.84
2019-05-03T06:10:48.905Z,51.96
2019-05-03T06:13:26.413Z,52.66
2019-05-03T06:16:15.527Z,52.66
2019-05-03T06:19:16.174Z,53.10
2019-05-03T06:21:56.940Z,53.33
2019-05-03T06:24:31.279Z,53.13
2019-05-03T06:27:10.218Z,52.87
2019-05-03T06:29:40.265Z,53.12
2019-05-03T06:32:28.661Z,53.42
2019-05-03T06:34:58.160Z,53.36
2019-05-03T06:37:30.170Z,53.91
2019-05-03T06:39:59.652Z,54.04
2019-05-03T06:42:29.162Z,53.80
2019-05-03T06:44:59.226Z,53.64
2019-05-03T06:47:29.851Z,54.11
2019-05-03T06:49:59.384Z,53.91
2019-05-03T06:52:29.463Z,54.58
2019-05-03T06:55:00.392Z,53.84
2019-05-03T06:57:30.444Z,52.89
2019-05-03T07:00:35.093Z,52.78
2019-05-03T07:03:15.187Z,53.13
2019-05-03T07:06:04.438Z,53.20
2019-05-03T07:08:49.095Z,53.01
2019-05-03T07:11:18.605Z,52.71
2019-05-03T07:13:48.110Z,52.09
2019-05-03T07:16:17.583Z,51.78
2019-05-03T07:18:47.076Z,51.69
2019-05-03T07:21:16.557Z,51.60
2019-05-03T07:23:46.046Z,51.16
2019-05-03T07:26:15.528Z,50.53
2019-05-03T07:28:49.319Z,50.83
2019-05-03T07:31:16.233Z,51.17
2019-05-03T07:33:45.721Z,50.68
2019-05-03T07:36:15.504Z,50.10
2019-05-03T07:38:45.447Z,50.17
2019-05-03T07:41:15.069Z,49.46
2019-05-03T07:43:45.161Z,49.23
2019-05-03T07:46:14.897Z,49.24
2019-05-03T07:48:45.706Z,49.48
2019-05-03T07:51:15.266Z,49.79
2019-05-03T07:53:45.217Z,49.29
2019-05-03T07:56:16.353Z,49.80
2019-05-03T07:59:00.538Z,49.15
2019-05-03T08:01:41.382Z,48.55
2019-05-03T08:04:10.865Z,48.37
2019-05-03T08:06:40.337Z,47.73
2019-05-03T08:09:10.355Z,47.83
2019-05-03T08:11:39.857Z,47.63
2019-05-03T08:14:09.334Z,47.31
2019-05-03T08:16:38.793Z,47.51
2019-05-03T08:19:08.327Z,47.85
2019-05-03T08:21:38.990Z,47.10
2019-05-03T08:24:08.854Z,46.75
2019-05-03T08:26:38.328Z,46.65
2019-05-03T08:29:16.026Z,45.97
2019-05-03T08:32:07.173Z,45.81
2019-05-03T08:34:55.575Z,45.66
2019-05-03T08:37:28.186Z,45.92
2019-05-03T08:39:57.700Z,45.35
2019-05-03T08:42:27.273Z,45.55
2019-05-03T08:44:56.742Z,44.97
2019-05-03T08:47:26.233Z,44.87
2019-05-03T08:49:55.733Z,44.82
2019-05-03T08:52:25.249Z,44.50
2019-05-03T08:54:55.158Z,44.25
2019-05-03T08:57:25.323Z,43.96
2019-05-03T08:59:55.147Z,44.14
2019-05-03T09:02:25.831Z,44.04
2019-05-03T09:04:55.575Z,43.89
2019-05-03T09:07:25.490Z,43.51
2019-05-03T09:10:00.154Z,42.77
2019-05-03T09:12:48.657Z,42.77
2019-05-03T09:15:18.166Z,42.23
2019-05-03T09:17:47.676Z,41.95
2019-05-03T09:20:17.211Z,41.50
2019-05-03T09:22:46.689Z,41.31
2019-05-03T09:25:16.200Z,40.78
2019-05-03T09:27:45.764Z,40.70
2019-05-03T09:30:16.683Z,40.93
2019-05-03T09:32:46.183Z,40.97
2019-05-03T09:35:29.320Z,40.66
2019-05-03T09:37:47.249Z,40.32
2019-05-03T09:40:17.035Z,39.33
2019-05-03T09:42:46.676Z,37.69
2019-05-03T09:45:16.968Z,37.68
2019-05-03T09:47:46.756Z,36.94
2019-05-03T09:50:16.708Z,35.36
2019-05-03T09:52:47.058Z,35.58
2019-05-03T09:55:30.979Z,36.01
2019-05-03T09:58:00.454Z,36.71
2019-05-03T10:00:29.940Z,36.38
2019-05-03T10:02:59.407Z,36.71
2019-05-03T10:05:29.012Z,35.51
2019-05-03T10:07:58.497Z,35.58
2019-05-03T10:10:27.987Z,34.54
2019-05-03T10:12:57.512Z,34.05
2019-05-03T10:15:40.302Z,34.69
2019-05-03T10:18:12.324Z,34.45
2019-05-03T10:20:41.786Z,34.09
2019-05-03T10:23:25.536Z,34.00
2019-05-03T10:25:55.231Z,33.05
2019-05-03T10:28:25.186Z,32.96
2019-05-03T10:30:54.865Z,32.65
2019-05-03T10:33:28.761Z,32.13
2019-05-03T10:35:58.475Z,32.18
2019-05-03T10:38:27.965Z,31.36
2019-05-03T10:40:57.476Z,30.54
2019-05-03T10:43:26.983Z,30.50
2019-05-03T10:45:56.500Z,31.05
2019-05-03T10:48:25.980Z,31.41
2019-05-03T10:50:56.416Z,31.59
2019-05-03T10:53:30.795Z,31.52
2019-05-03T10:56:31.366Z,31.83
2019-05-03T10:59:02.950Z,31.12
2019-05-03T11:01:45.161Z,30.39
2019-05-03T11:04:14.855Z,30.26
2019-05-03T11:06:45.688Z,29.61
2019-05-03T11:09:15.537Z,29.40
2019-05-03T11:11:45.496Z,28.87
2019-05-03T11:14:15.134Z,29.41
2019-05-03T11:16:46.030Z,29.26
2019-05-03T11:19:15.952Z,29.34
2019-05-03T11:21:45.668Z,29.42
2019-05-03T11:24:15.401Z,29.04
2019-05-03T11:26:46.535Z,28.57
2019-05-03T11:29:16.086Z,28.95
2019-05-03T11:32:16.470Z,27.99
2019-05-03T11:34:55.254Z,27.18
2019-05-03T11:37:45.252Z,27.73
2019-05-03T11:40:15.703Z,27.55
2019-05-03T11:42:45.469Z,26.70
2019-05-03T11:45:15.398Z,26.12
2019-05-03T11:47:45.762Z,26.48
2019-05-03T11:50:15.817Z,26.65
2019-05-03T11:52:47.186Z,26.70
2019-05-03T11:55:16.506Z,26.46
2019-05-03T11:57:45.973Z,26.15
2019-05-03T12:00:21.594Z,27.00
2019-05-03T12:03:22.175Z,27.10
2019-05-03T12:05:55.234Z,27.90
2019-05-03T12:08:25.277Z,27.92
2019-05-03T12:11:00.623Z,27.12
2019-05-03T12:13:29.638Z,27.10
2019-05-03T12:15:59.656Z,27.56
2019-05-03T12:18:29.355Z,27.47
2019-05-03T12:21:00.159Z,27.48
2019-05-03T12:23:31.866Z,27.38
2019-05-03T12:26:02.414Z,27.15
2019-05-03T12:28:35.075Z,26.60
2019-05-03T12:31:04.859Z,26.44
2019-05-03T12:33:35.482Z,26.97
2019-05-03T12:36:05.691Z,26.78
2019-05-03T12:38:35.238Z,27.21
2019-05-03T12:41:05.604Z,27.25
2019-05-03T12:43:35.274Z,26.64
2019-05-03T12:46:05.224Z,26.32
2019-05-03T12:48:35.490Z,26.57
2019-05-03T12:51:06.489Z,25.92
2019-05-03T12:53:36.641Z,25.82
2019-05-03T12:56:11.525Z,26.27
2019-05-03T12:58:55.136Z,26.43
2019-05-03T13:01:42.292Z,26.27
2019-05-03T13:04:15.305Z,26.07
2019-05-03T13:06:48.807Z,25.61
2019-05-03T13:09:18.311Z,25.68
2019-05-03T13:11:54.769Z,26.01
2019-05-03T13:14:21.209Z,25.48
2019-05-03T13:16:50.679Z,25.48
2019-05-03T13:19:20.136Z,26.02
2019-05-03T13:21:49.603Z,26.11
2019-05-03T13:24:23.341Z,26.03
2019-05-03T13:26:50.388Z,25.76
2019-05-03T13:29:19.847Z,25.07
2019-05-03T13:32:01.245Z,25.52
2019-05-03T13:34:20.532Z,25.33
2019-05-03T13:36:49.998Z,25.84
2019-05-03T13:39:19.464Z,25.78
2019-05-03T13:41:48.970Z,25.92
2019-05-03T13:44:18.456Z,26.25
2019-05-03T13:46:47.916Z,26.34
2019-05-03T13:49:17.408Z,26.11
2019-05-03T13:51:46.924Z,26.16
2019-05-03T13:54:16.393Z,26.28
2019-05-03T13:56:45.859Z,26.20
2019-05-03T13:59:19.916Z,25.66
2019-05-03T14:01:46.603Z,25.71
2019-05-03T14:04:16.063Z,25.75
2019-05-03T14:06:45.544Z,26.32
2019-05-03T14:09:15.046Z,26.44
2019-05-03T14:11:44.899Z,26.67
2019-05-03T14:14:15.252Z,25.82
2019-05-03T14:16:45.274Z,26.15
2019-05-03T14:19:20.541Z,26.00
2019-05-03T14:21:54.668Z,26.32
2019-05-03T14:24:24.664Z,26.66
2019-05-03T14:26:55.146Z,26.85
2019-05-03T14:29:25.273Z,26.85
2019-05-03T14:31:54.884Z,26.66
2019-05-03T14:34:25.680Z,26.78
2019-05-03T14:36:55.591Z,26.94
2019-05-03T14:39:25.514Z,27.09
2019-05-03T14:41:55.579Z,27.12
2019-05-03T14:44:25.430Z,26.44
2019-05-03T14:46:56.609Z,26.81
2019-05-03T14:49:26.263Z,27.49
2019-05-03T14:51:56.694Z,27.30
2019-05-03T14:54:28.846Z,27.29
2019-05-03T14:57:14.583Z,26.95
2019-05-03T15:00:16.962Z,26.98
2019-05-03T15:02:58.046Z,26.92
2019-05-03T15:05:27.648Z,27.19
2019-05-03T15:07:57.148Z,27.30
2019-05-03T15:10:26.635Z,27.33
2019-05-03T15:12:56.150Z,27.44
2019-05-03T15:15:28.588Z,27.55
2019-05-03T15:17:56.909Z,27.09
2019-05-03T15:20:26.443Z,27.28
2019-05-03T15:22:55.970Z,27.23
2019-05-03T15:25:25.527Z,26.77
2019-05-03T15:27:55.478Z,27.67
2019-05-03T15:30:25.557Z,29.36
2019-05-03T15:33:00.413Z,30.32
2019-05-03T15:35:26.439Z,30.70
2019-05-03T15:37:55.964Z,30.80
2019-05-03T15:40:26.240Z,31.37
2019-05-03T15:43:01.697Z,31.87
2019-05-03T15:45:54.644Z,32.07
2019-05-03T15:48:26.969Z,32.27
2019-05-03T15:50:56.462Z,32.57
2019-05-03T15:53:25.927Z,32.66
2019-05-03T15:55:55.469Z,32.45
2019-05-03T15:58:25.003Z,32.68
2019-05-03T16:00:55.445Z,32.90
2019-05-03T16:03:25.396Z,32.85
2019-05-03T16:05:55.630Z,33.08
2019-05-03T16:08:25.369Z,33.07
2019-05-03T16:10:55.155Z,32.94
2019-05-03T16:13:25.212Z,33.21
2019-05-03T16:15:55.407Z,33.41
2019-05-03T16:18:25.046Z,33.75
2019-05-03T16:20:54.821Z,33.58
2019-05-03T16:23:25.016Z,34.15
2019-05-03T16:25:54.908Z,34.57
2019-05-03T16:28:33.977Z,34.38
2019-05-03T16:31:09.562Z,34.46
2019-05-03T16:33:39.179Z,33.89
2019-05-03T16:36:08.679Z,34.14
2019-05-03T16:38:38.169Z,34.25
2019-05-03T16:41:07.642Z,34.40
2019-05-03T16:43:37.143Z,34.53
2019-05-03T16:46:06.606Z,34.52
2019-05-03T16:48:36.120Z,34.91
2019-05-03T16:51:05.575Z,35.19
2019-05-03T16:53:35.162Z,35.18
2019-05-03T16:56:04.655Z,35.53
2019-05-03T16:58:35.431Z,35.52
2019-05-03T17:01:05.217Z,35.80
2019-05-03T17:03:42.821Z,35.75
2019-05-03T17:06:46.520Z,35.88
2019-05-03T17:09:35.356Z,36.10
2019-05-03T17:12:15.165Z,36.19
2019-05-03T17:14:44.743Z,36.29
2019-05-03T17:17:14.864Z,36.77
2019-05-03T17:19:44.795Z,37.27
2019-05-03T17:22:17.300Z,37.71
2019-05-03T17:24:46.742Z,37.61
2019-05-03T17:27:16.237Z,37.80
2019-05-03T17:29:45.762Z,37.95
2019-05-03T17:32:15.459Z,38.12
2019-05-03T17:34:45.327Z,38.08
2019-05-03T17:37:15.223Z,38.28
2019-05-03T17:40:06.513Z,38.40
2019-05-03T17:42:54.709Z,38.85
2019-05-03T17:45:29.829Z,39.02
2019-05-03T17:47:59.299Z,39.16
2019-05-03T17:50:28.823Z,39.47
2019-05-03T17:53:20.042Z,39.73
2019-05-03T17:56:04.661Z,40.25
2019-05-03T17:58:46.940Z,41.13
2019-05-03T18:01:35.381Z,42.10
2019-05-03T18:04:12.461Z,41.93
2019-05-03T18:06:48.663Z,41.45
2019-05-03T18:09:23.903Z,41.23
2019-05-03T18:11:55.676Z,41.28
2019-05-03T18:14:28.019Z,41.58
2019-05-03T18:16:59.332Z,41.35
2019-05-03T18:19:28.781Z,41.29
2019-05-03T18:21:58.275Z,41.07
2019-05-03T18:24:27.757Z,40.37
2019-05-03T18:27:00.113Z,40.42
2019-05-03T18:29:29.591Z,39.84
2019-05-03T18:31:59.125Z,39.77
2019-05-03T18:34:28.577Z,39.81
2019-05-03T18:36:58.125Z,39.95
2019-05-03T18:39:27.700Z,39.93
2019-05-03T18:41:57.169Z,39.97
2019-05-03T18:44:34.592Z,40.17
2019-05-03T18:47:10.404Z,40.18
2019-05-03T18:49:39.906Z,40.00
2019-05-03T18:52:09.395Z,40.14
2019-05-03T18:54:38.861Z,40.19
2019-05-03T18:57:08.359Z,40.10
2019-05-03T18:59:37.884Z,40.46
2019-05-03T19:02:07.475Z,39.76
2019-05-03T19:04:54.982Z,39.97
2019-05-03T19:07:42.637Z,40.17
2019-05-03T19:10:40.431Z,40.39
2019-05-03T19:13:35.011Z,40.41
2019-05-03T19:16:15.022Z,40.67
2019-05-03T19:18:45.379Z,41.12
2019-05-03T19:21:15.114Z,41.70
2019-05-03T19:23:44.921Z,42.52
2019-05-03T19:26:14.576Z,42.87
2019-05-03T19:28:44.453Z,43.12
2019-05-03T19:31:14.108Z,43.01
2019-05-03T19:33:45.696Z,42.60
2019-05-03T19:36:15.052Z,42.65
2019-05-03T19:38:44.860Z,42.71
2019-05-03T19:41:16.220Z,42.70
2019-05-03T19:43:45.889Z,42.75
2019-05-03T19:46:16.602Z,42.36
2019-05-03T19:48:46.258Z,42.16
2019-05-03T19:51:16.969Z,41.73
2019-05-03T19:53:55.129Z,41.90
2019-05-03T19:56:25.610Z,41.80
2019-05-03T19:59:04.641Z,41.21
2019-05-03T20:01:59.316Z,40.85
2019-05-03T20:04:43.494Z,39.78
2019-05-03T20:07:45.185Z,40.04
2019-05-03T20:10:17.806Z,40.12
2019-05-03T20:12:46.789Z,39.34
2019-05-03T20:15:16.390Z,40.02
2019-05-03T20:17:56.589Z,41.11
2019-05-03T20:20:17.686Z,42.52
2019-05-03T20:22:47.680Z,43.37
2019-05-03T20:25:17.789Z,44.24
2019-05-03T20:27:47.412Z,44.96
2019-05-03T20:30:17.530Z,46.07
2019-05-03T20:32:47.327Z,46.60
2019-05-03T20:35:19.349Z,47.91
2019-05-03T20:37:48.242Z,48.97
2019-05-03T20:40:17.888Z,49.69
2019-05-03T20:42:54.435Z,50.91
2019-05-03T20:45:29.017Z,52.13
2019-05-03T20:48:00.037Z,52.56
2019-05-03T20:50:29.686Z,52.42
2019-05-03T20:52:59.297Z,52.00
2019-05-03T20:55:28.971Z,52.06
2019-05-03T20:57:58.656Z,51.62
2019-05-03T21:00:28.209Z,51.16
2019-05-03T21:02:57.743Z,51.10
2019-05-03T21:05:31.811Z,50.69
2019-05-03T21:07:58.624Z,51.40
2019-05-03T21:10:28.107Z,51.85
2019-05-03T21:12:57.585Z,51.97
2019-05-03T21:15:49.031Z,51.34
2019-05-03T21:18:37.453Z,51.46
2019-05-03T21:21:11.714Z,50.82
2019-05-03T21:23:44.974Z,51.18
2019-05-03T21:26:16.646Z,51.70
2019-05-03T21:28:45.737Z,51.40
2019-05-03T21:31:15.713Z,51.49
2019-05-03T21:33:45.297Z,51.85
2019-05-03T21:36:15.171Z,52.21
2019-05-03T21:38:44.776Z,52.62
2019-05-03T21:41:15.678Z,53.00
2019-05-03T21:43:45.328Z,53.32
2019-05-03T21:46:25.536Z,53.63
2019-05-03T21:49:11.696Z,53.92
2019-05-03T21:51:41.165Z,54.16
2019-05-03T21:54:10.678Z,54.05
2019-05-03T21:56:40.136Z,54.33
2019-05-03T21:59:09.628Z,54.45
2019-05-03T22:01:42.630Z,54.86
2019-05-03T22:04:12.060Z,54.71
2019-05-03T22:06:41.544Z,54.29
2019-05-03T22:09:11.130Z,53.90
2019-05-03T22:11:40.625Z,53.58
2019-05-03T22:14:15.616Z,53.46
2019-05-03T22:17:06.962Z,53.51
2019-05-03T22:19:36.422Z,53.82
2019-05-03T22:22:25.425Z,53.72
2019-05-03T22:24:56.962Z,53.64
2019-05-03T22:27:29.341Z,53.62
2019-05-03T22:29:58.806Z,53.78
2019-05-03T22:32:28.267Z,53.58
2019-05-03T22:34:57.770Z,53.43
2019-05-03T22:37:27.238Z,53.66
2019-05-03T22:39:56.740Z,53.48
2019-05-03T22:42:26.234Z,53.73
2019-05-03T22:44:55.709Z,53.95
2019-05-03T22:47:25.434Z,53.98
2019-05-03T22:49:54.942Z,54.05
2019-05-03T22:52:25.785Z,54.23
2019-05-03T22:54:55.582Z,54.36
2019-05-03T22:57:25.047Z,54.53
2019-05-03T22:59:54.539Z,54.59
2019-05-03T23:02:24.941Z,54.91
2019-05-03T23:04:55.397Z,55.21
2019-05-03T23:07:25.159Z,55.38
2019-05-03T23:09:54.625Z,55.49
2019-05-03T23:12:24.110Z,55.30
2019-05-03T23:14:55.090Z,54.64
2019-05-03T23:17:25.439Z,54.67
2019-05-03T23:19:59.840Z,55.35
2019-05-03T23:22:31.422Z,55.43
2019-05-03T23:25:00.913Z,53.57
2019-05-03T23:27:30.395Z,53.38
2019-05-03T23:29:59.844Z,53.06
2019-05-03T23:32:29.309Z,52.96
2019-05-03T23:34:59.244Z,52.83
2019-05-03T23:37:28.766Z,53.13
2019-05-03T23:39:58.256Z,52.88
2019-05-03T23:42:27.752Z,54.10
2019-05-03T23:44:57.204Z,53.50
2019-05-03T23:47:35.111Z,53.40
2019-05-03T23:50:06.068Z,52.85
2019-05-03T23:52:36.390Z,52.76
2019-05-03T23:55:25.908Z,53.09
2019-05-03T23:57:55.526Z,53.77
